Pernille — 5BNZ2 — position and weather

sailwx.info

Track history (hours):
 
Tides and Currents Weather Stations Pressure Air Temp Water Temp Dewpoint Dewpoint Depression Visibility Wind Speed Wind Dir Waves Ship Positions

Pernille

Last reported at 2015-Jan-23 16:17 UTC. Time now 2015-Jan-27 12:25 UTC.
Position N 55°31' E 015°04'.

Length 82 m; draft 4 m.

Type: Cargo ship. MMSI: 212662000.

Date/timePositionNaut miles runAvg speedWind from/ knotsBaromVisibWave heightAir tempDewpointWater temp
2015-Jan-23 16:17N 55°31' E 015°04'912.1
2015-Jan-23 15:33N 55°27' E 014°51'1311.5
2015-Jan-23 14:28N 55°19' E 014°33'1111.9
2015-Jan-23 13:33N 55°12' E 014°20'4310.8
2015-Jan-23 09:33N 55°14' E 013°05'1111.2
2015-Jan-23 08:33N 55°16' E 012°45'9 9.1
2015-Jan-23 07:33N 55°25' E 012°40'1010.5
2015-Jan-23 06:33N 55°35' E 012°42'10 9.9
2015-Jan-23 05:33N 55°45' E 012°41'1110.5
2015-Jan-23 04:33N 55°55' E 012°38'9 9.2
2015-Jan-23 03:33N 56°05' E 012°36'9 9.4
2015-Jan-23 02:33N 56°10' E 012°22'1111.5
2015-Jan-23 01:33N 56°17' E 012°05'2211.0
2015-Jan-22 23:33N 56°38' E 011°54'1110.8
2015-Jan-22 22:33N 56°48' E 011°50'  
2015-Jan-20 07:14N 56°10' E 011°58'6 8.7
2015-Jan-20 06:33N 56°11' E 012°08'9 8.9
2015-Jan-20 05:33N 56°11' E 012°24'1111.0
2015-Jan-20 04:33N 56°03' E 012°39'1010.1
2015-Jan-20 03:33N 55°54' E 012°44'10 9.7
2015-Jan-20 02:33N 55°44' E 012°42'1110.5
2015-Jan-20 01:33N 55°34' E 012°42'10 9.7
2015-Jan-20 00:34N 55°24' E 012°42'8 8.0
2015-Jan-19 23:33N 55°17' E 012°48'9 9.1
2015-Jan-19 22:33N 55°15' E 013°04'2210.2
2015-Jan-19 20:27N 55°14' E 013°42'1010.9
2015-Jan-19 19:34N 55°14' E 013°59'1110.6
2015-Jan-19 18:33N 55°15' E 014°18'1010.0
2015-Jan-19 17:33N 55°22' E 014°29'9 9.0
2015-Jan-19 16:33N 55°28' E 014°40'10 9.7
2015-Jan-19 15:33N 55°33' E 014°55'9 9.2
2015-Jan-19 14:33N 55°38' E 015°10'  
2015-Jan-15 07:33N 59°39' E 023°36'1010.1
2015-Jan-15 06:33N 59°42' E 023°55'7510.5
2015-Jan-14 23:26N 59°60' E 026°20'910.7
2015-Jan-14 22:33N 60°01' E 026°39'  
Track history (hours):
 
Tides and Currents Weather Stations Pressure Air Temp Water Temp Dewpoint Dewpoint Depression Visibility Wind Speed Wind Dir Waves Ship Positions

Pernille

Last reported at 2015-Jan-23 16:17 UTC. Time now 2015-Jan-27 12:25 UTC.
Position N 55°31' E 015°04'.

Length 82 m; draft 4 m.

Type: Cargo ship. MMSI: 212662000.

Date/timePositionNaut miles runAvg speedWind from/ knotsBaromVisibWave heightAir tempDewpointWater temp
2015-Jan-23 16:17N 55°31' E 015°04'912.1
2015-Jan-23 15:33N 55°27' E 014°51'1311.5
2015-Jan-23 14:28N 55°19' E 014°33'1111.9
2015-Jan-23 13:33N 55°12' E 014°20'4310.8
2015-Jan-23 09:33N 55°14' E 013°05'1111.2
2015-Jan-23 08:33N 55°16' E 012°45'9 9.1
2015-Jan-23 07:33N 55°25' E 012°40'1010.5
2015-Jan-23 06:33N 55°35' E 012°42'10 9.9
2015-Jan-23 05:33N 55°45' E 012°41'1110.5
2015-Jan-23 04:33N 55°55' E 012°38'9 9.2
2015-Jan-23 03:33N 56°05' E 012°36'9 9.4
2015-Jan-23 02:33N 56°10' E 012°22'1111.5
2015-Jan-23 01:33N 56°17' E 012°05'2211.0
2015-Jan-22 23:33N 56°38' E 011°54'1110.8
2015-Jan-22 22:33N 56°48' E 011°50'  
2015-Jan-20 07:14N 56°10' E 011°58'6 8.7
2015-Jan-20 06:33N 56°11' E 012°08'9 8.9
2015-Jan-20 05:33N 56°11' E 012°24'1111.0
2015-Jan-20 04:33N 56°03' E 012°39'1010.1
2015-Jan-20 03:33N 55°54' E 012°44'10 9.7
2015-Jan-20 02:33N 55°44' E 012°42'1110.5
2015-Jan-20 01:33N 55°34' E 012°42'10 9.7
2015-Jan-20 00:34N 55°24' E 012°42'8 8.0
2015-Jan-19 23:33N 55°17' E 012°48'9 9.1
2015-Jan-19 22:33N 55°15' E 013°04'2210.2
2015-Jan-19 20:27N 55°14' E 013°42'1010.9
2015-Jan-19 19:34N 55°14' E 013°59'1110.6
2015-Jan-19 18:33N 55°15' E 014°18'1010.0
2015-Jan-19 17:33N 55°22' E 014°29'9 9.0
2015-Jan-19 16:33N 55°28' E 014°40'10 9.7
2015-Jan-19 15:33N 55°33' E 014°55'9 9.2
2015-Jan-19 14:33N 55°38' E 015°10'  
2015-Jan-15 07:33N 59°39' E 023°36'1010.1
2015-Jan-15 06:33N 59°42' E 023°55'7510.5
2015-Jan-14 23:26N 59°60' E 026°20'910.7
2015-Jan-14 22:33N 60°01' E 026°39'  

Dump ship's entire track history